Aérodrome :
LOGIN :

S'inscrire | Disclaimer

   EN    FR    IT 

 










Légende :    VFR   VFR Marginal   IFR   IFR Intensif   IFR Très Intensif
Visi : 
Plafond : 
>= 8 km
>= 3000ft
5 à 8 km
1000 à 3000 ft
1500m à 5 km
500 à 1000 ft
800 à 1500m
200 à 500 ft
< 800m
< 200 ft
Symboles :   Orages  Brouillard  Fortes neiges  Fortes précipitations  Vent > 20 kt
SIGMETs :   Divers  Orages  Givrage  Turbulence  Onde Orograph.  Cendres Volcan.






- Altitude de l'aérodrome : 288 ft
- Code IATA : BZZ


EGVN - RAF Brize Norton

DERNIER METAR :
  • 150220Z 23008KT 9999 SCT032 BKN120 05/02 Q0987 TEMPO 4000 SHRA BKN020 RMK BLU TEMPO GRN

METARs EXPIRÉS :
  • 150150Z 23008KT 9999 -SHRA SCT024CB BKN037 BKN120 05/03 Q0986 RESHRA TEMPO 4000 +SHRA RMK WHT TEMPO GRN
  • 150120Z 24008G19KT CAVOK 05/02 Q0986 RESHRA TEMPO 4000 SHRA BKN020CB RMK BLU TEMPO GRN
  • 150059Z 24014G31KT 9999 FEW015CB SCT060 BKN140 05/03 Q0986 RESHRA TEMPO 4000 SHRA BKN020CB RMK BLU TEMPO GRN
  • 150045Z 23006KT 5000 SHRA BKN022CB BKN060 OVC140 06/04 Q0986 BECMG 9999 NSW RMK WHT BECMG BLU
  • 150020Z 23007KT 9999 FEW025 SCT080 07/04 Q0985 RERA TEMPO 7000 SHRA BKN024CB RMK BLU TEMPO WHT
  • 142350Z 22010G20KT 8000 RA OVC025 07/04 Q0985 NOSIG RMK BLU BLU

TAF AMD TAF EGVN
Valide du 15 à 00h jusqu'au 16 à 00h UTC


150054Z 1500/1524 20012KT 9999 SCT035
PROB40
TEMPO 1500/1505 24015G25KT 5000 SHRA SCT010CB
PROB30
TEMPO 1500/1503 3000 +SHRA
PROB30
TEMPO 1508/1518 -SHRA SCT014
PROB30
TEMPO 1518/1521 7000 -RA BKN014CB



MET'MAP, la Météo Aéronautique d'un coup d'oeil ! - Copyright ORBIFLY Décembre 2007 - Disclaimer

ORBIFLY MET'MAP TEAM :

Programmation & Développement : Alexandra Zaïnal
Sur une idée originale de : Baudouin d'Aumeries
Assistance à la programmation : Marc-Olivier Méhu
Soutien technique & logistique : Manuel Goepfert

Contact : metmap@orbifly.com




SOURCES & CREDITS :

   NOAA